Time;durP1;ratioP1;P1;durP2;ratioP2;P2;SDS_P1;SDS_P2;PMS_P1;PMS_P2;Temp;Humidity;BMP_temperature;BMP_pressure;BME280_temperature;BME280_humidity;BME280_pressure;Samples;Min_cycle;Max_cycle;Signal;HPM_P1;HPM_P2
2021/11/27 00:01:39;;;;;;;22.83;13.90;;;5.20;71.00;;;;;;5079688;28;20024;-80
2021/11/27 00:04:05;;;;;;;32.03;17.17;;;5.20;71.10;;;;;;5053010;28;20494;-81
2021/11/27 00:06:33;;;;;;;31.77;18.60;;;5.20;71.20;;;;;;5055996;28;20031;-81
2021/11/27 00:09:00;;;;;;;28.93;16.57;;;5.20;71.30;;;;;;5066337;28;20141;-81
2021/11/27 00:11:26;;;;;;;33.77;18.97;;;5.20;71.30;;;;;;5054304;28;20080;-81
2021/11/27 00:13:53;;;;;;;27.90;16.97;;;5.20;71.30;;;;;;5077093;28;20059;-81
2021/11/27 00:16:19;;;;;;;36.90;20.43;;;5.20;71.40;;;;;;5063399;28;20036;-81
2021/11/27 00:18:45;;;;;;;31.27;18.87;;;5.20;71.30;;;;;;5053838;28;20055;-81
2021/11/27 00:21:14;;;;;;;34.03;19.83;;;5.20;71.40;;;;;;5068378;28;20090;-81
2021/11/27 00:23:42;;;;;;;33.10;19.70;;;5.20;71.30;;;;;;5062945;28;20028;-81
2021/11/27 00:26:11;;;;;;;30.17;19.27;;;5.20;71.30;;;;;;5053657;28;20124;-81
2021/11/27 00:28:37;;;;;;;32.80;20.17;;;5.30;71.30;;;;;;5054836;28;20094;-81
2021/11/27 00:31:08;;;;;;;35.10;20.63;;;5.30;71.30;;;;;;5053111;28;20032;-81
2021/11/27 00:33:34;;;;;;;35.07;18.83;;;5.20;71.20;;;;;;5053707;28;20024;-81
2021/11/27 00:36:00;;;;;;;27.97;17.30;;;5.20;71.30;;;;;;5072744;28;20107;-81
2021/11/27 00:38:26;;;;;;;28.90;17.13;;;5.20;71.30;;;;;;5054310;28;20159;-81
2021/11/27 00:40:52;;;;;;;30.03;15.40;;;5.20;71.50;;;;;;5053930;28;20487;-81
2021/11/27 00:43:18;;;;;;;25.63;15.17;;;5.20;71.50;;;;;;5051962;28;20423;-81
2021/11/27 00:45:46;;;;;;;26.57;14.77;;;5.20;71.60;;;;;;5041860;28;20035;-80
2021/11/27 00:48:14;;;;;;;23.60;14.20;;;5.20;71.70;;;;;;5072549;28;20472;-81
2021/11/27 00:50:51;;;;;;;23.40;13.07;;;5.20;71.70;;;;;;5064259;28;20056;-81
2021/11/27 00:53:18;;;;;;;21.23;13.13;;;5.20;71.90;;;;;;5048831;28;20040;-81
2021/11/27 00:55:44;;;;;;;23.37;14.20;;;5.20;71.80;;;;;;5049834;28;20036;-81
2021/11/27 00:58:10;;;;;;;25.50;14.20;;;5.20;71.70;;;;;;5065313;28;20025;-81
2021/11/27 01:00:44;;;;;;;22.33;12.57;;;5.20;71.80;;;;;;5068801;28;20033;-81
2021/11/27 01:03:13;;;;;;;24.27;13.77;;;5.20;71.90;;;;;;5069033;28;20460;-80
2021/11/27 01:05:40;;;;;;;25.07;13.70;;;5.20;72.00;;;;;;5049430;28;20033;-81
2021/11/27 01:08:06;;;;;;;21.77;13.37;;;5.20;72.20;;;;;;5061575;28;20032;-82
2021/11/27 01:10:40;;;;;;;24.87;13.67;;;5.20;72.10;;;;;;5061934;28;20039;-81
2021/11/27 01:13:07;;;;;;;26.30;14.27;;;5.20;72.00;;;;;;5065315;28;20368;-81
2021/11/27 01:15:33;;;;;;;23.27;13.97;;;5.20;72.10;;;;;;5070664;28;20529;-81
2021/11/27 01:18:00;;;;;;;23.37;13.83;;;5.20;72.10;;;;;;5055785;28;20107;-81
2021/11/27 01:20:32;;;;;;;25.73;14.93;;;5.20;72.20;;;;;;5070262;28;20055;-81
2021/11/27 01:22:58;;;;;;;25.03;14.33;;;5.10;72.10;;;;;;5065117;28;20116;-81
2021/11/27 01:25:25;;;;;;;24.90;14.70;;;5.10;72.30;;;;;;5067123;28;20052;-81
2021/11/27 01:27:51;;;;;;;21.20;13.63;;;5.10;72.30;;;;;;5053230;28;20036;-81
2021/11/27 01:30:19;;;;;;;23.50;14.33;;;5.10;72.40;;;;;;5069973;28;20036;-81
2021/11/27 01:32:46;;;;;;;23.50;14.23;;;5.10;72.50;;;;;;5072403;28;20060;-82
2021/11/27 01:35:12;;;;;;;22.87;13.40;;;5.10;72.60;;;;;;5072210;28;20036;-81
2021/11/27 01:37:39;;;;;;;23.73;13.50;;;5.20;72.60;;;;;;5052622;28;20025;-81
2021/11/27 01:40:09;;;;;;;24.47;14.40;;;5.20;72.50;;;;;;5052768;28;20040;-81
2021/11/27 01:42:35;;;;;;;22.20;13.77;;;5.20;72.50;;;;;;5075717;28;20622;-81
2021/11/27 01:45:02;;;;;;;22.10;14.50;;;5.10;72.40;;;;;;5059886;28;20025;-82
2021/11/27 01:47:28;;;;;;;22.10;14.57;;;5.10;72.50;;;;;;5053241;28;20044;-82
2021/11/27 01:49:54;;;;;;;22.13;13.77;;;5.10;72.50;;;;;;5070168;28;20119;-82
2021/11/27 01:52:20;;;;;;;23.07;12.97;;;5.10;72.70;;;;;;5077721;28;20044;-81
2021/11/27 01:54:46;;;;;;;19.97;12.93;;;5.10;72.80;;;;;;5054576;28;20028;-81
2021/11/27 01:57:12;;;;;;;23.80;13.73;;;5.10;72.80;;;;;;5077168;28;20039;-81
2021/11/27 01:59:40;;;;;;;23.67;14.17;;;5.10;72.80;;;;;;5058260;28;20032;-81
2021/11/27 02:02:09;;;;;;;25.20;14.10;;;5.10;72.80;;;;;;5054704;28;20115;-81
2021/11/27 02:04:35;;;;;;;22.57;13.53;;;5.20;72.80;;;;;;5056596;28;20040;-81
2021/11/27 02:07:02;;;;;;;22.80;14.60;;;5.20;72.70;;;;;;5054151;28;20091;-81
2021/11/27 02:09:32;;;;;;;23.63;14.23;;;5.10;72.60;;;;;;5054572;28;20049;-82
2021/11/27 02:11:59;;;;;;;20.67;13.50;;;5.10;72.70;;;;;;5067792;28;20029;-81
2021/11/27 02:14:26;;;;;;;22.97;14.60;;;5.10;72.70;;;;;;5055214;28;20063;-82
2021/11/27 02:16:52;;;;;;;21.33;14.20;;;5.10;72.70;;;;;;5072117;28;20028;-81
2021/11/27 02:19:19;;;;;;;21.27;13.87;;;5.20;72.80;;;;;;5072822;28;20044;-81
2021/11/27 02:21:45;;;;;;;23.77;14.73;;;5.20;72.80;;;;;;5054732;28;20059;-81
2021/11/27 02:24:16;;;;;;;22.43;13.60;;;5.10;72.60;;;;;;5056000;28;20037;-81
2021/11/27 02:26:43;;;;;;;24.00;14.17;;;5.10;72.80;;;;;;5051921;28;20111;-81
2021/11/27 02:29:22;;;;;;;24.03;14.67;;;5.10;72.80;;;;;;5089927;28;20491;-81
2021/11/27 02:31:49;;;;;;;24.33;14.70;;;5.10;72.90;;;;;;5069910;28;20032;-81
2021/11/27 02:34:15;;;;;;;23.73;13.83;;;5.10;72.90;;;;;;5052433;28;20020;-81
2021/11/27 02:36:45;;;;;;;20.43;13.67;;;5.10;72.90;;;;;;5077921;28;20103;-81
2021/11/27 02:39:12;;;;;;;21.90;13.13;;;5.20;72.90;;;;;;5050793;28;20033;-81
2021/11/27 02:41:39;;;;;;;19.90;12.40;;;5.20;72.90;;;;;;5064379;28;20020;-81
2021/11/27 02:44:08;;;;;;;18.17;12.00;;;5.10;72.80;;;;;;5047100;28;20467;-82
2021/11/27 02:46:35;;;;;;;20.87;12.50;;;5.20;72.90;;;;;;5070413;28;20032;-81
2021/11/27 02:49:01;;;;;;;20.70;12.53;;;5.20;72.90;;;;;;5073676;28;20024;-81
2021/11/27 02:51:26;;;;;;;17.77;11.40;;;5.10;72.90;;;;;;5052950;28;20502;-81
2021/11/27 02:53:52;;;;;;;18.73;12.87;;;5.10;72.90;;;;;;5073415;28;20051;-81
2021/11/27 02:56:18;;;;;;;19.27;11.93;;;5.10;72.80;;;;;;5073396;28;20029;-81
2021/11/27 02:58:44;;;;;;;19.67;12.70;;;5.10;72.90;;;;;;5072110;28;20033;-81
2021/11/27 03:01:10;;;;;;;17.87;12.00;;;5.20;72.90;;;;;;5054565;28;20547;-81
2021/11/27 03:03:38;;;;;;;19.23;12.40;;;5.20;73.00;;;;;;5048081;28;20484;-81
2021/11/27 03:06:04;;;;;;;19.40;13.03;;;5.20;72.90;;;;;;5055695;28;20494;-81
2021/11/27 03:08:31;;;;;;;17.60;11.67;;;5.10;72.90;;;;;;5065173;28;20118;-81
2021/11/27 03:10:57;;;;;;;19.20;12.47;;;5.10;73.00;;;;;;5063865;28;20039;-80
2021/11/27 03:13:33;;;;;;;21.73;13.13;;;5.20;73.10;;;;;;5052640;28;20036;-81
2021/11/27 03:15:59;;;;;;;19.30;12.53;;;5.20;73.00;;;;;;5055485;28;20052;-81
2021/11/27 03:18:25;;;;;;;19.97;11.93;;;5.20;73.00;;;;;;5073507;28;20442;-81
2021/11/27 03:20:52;;;;;;;19.13;12.60;;;5.10;72.90;;;;;;5079047;28;20036;-81
2021/11/27 03:23:19;;;;;;;19.20;13.00;;;5.10;72.90;;;;;;5065522;28;20438;-81
2021/11/27 03:25:45;;;;;;;18.47;12.43;;;5.10;73.00;;;;;;5051573;28;20445;-81
2021/11/27 03:28:11;;;;;;;19.93;13.10;;;5.10;73.10;;;;;;5079146;28;20024;-81
2021/11/27 03:30:36;;;;;;;18.30;12.03;;;5.10;73.10;;;;;;5053995;28;20446;-81
2021/11/27 03:33:02;;;;;;;18.93;13.60;;;5.10;73.10;;;;;;5090594;28;20079;-81
2021/11/27 03:35:28;;;;;;;21.07;14.13;;;5.10;73.10;;;;;;5053239;28;20025;-80
2021/11/27 03:37:54;;;;;;;21.53;13.93;;;5.10;73.20;;;;;;5061536;28;20097;-81
2021/11/27 03:40:21;;;;;;;26.70;17.30;;;5.10;73.30;;;;;;5053019;28;20032;-81
2021/11/27 03:42:48;;;;;;;25.63;16.07;;;5.20;73.40;;;;;;5078520;28;20024;-81
2021/11/27 03:45:18;;;;;;;23.77;16.30;;;5.20;73.20;;;;;;5075059;28;20436;-81
2021/11/27 03:47:53;;;;;;;25.07;16.03;;;5.20;73.20;;;;;;5047651;28;20503;-81
2021/11/27 03:50:19;;;;;;;24.90;15.97;;;5.20;73.30;;;;;;5057363;28;20063;-81
2021/11/27 03:52:46;;;;;;;22.90;14.97;;;5.20;73.10;;;;;;5066235;28;20052;-81
2021/11/27 03:55:13;;;;;;;23.50;13.43;;;5.20;73.10;;;;;;5061802;28;20043;-81
2021/11/27 03:57:39;;;;;;;23.07;14.27;;;5.20;73.00;;;;;;5062156;28;20078;-81
2021/11/27 04:00:07;;;;;;;26.43;15.80;;;5.20;73.10;;;;;;5050380;28;20025;-81
2021/11/27 04:02:33;;;;;;;21.20;14.83;;;5.10;73.20;;;;;;5069858;28;20487;-81
2021/11/27 04:04:59;;;;;;;24.50;16.00;;;5.20;73.30;;;;;;5069651;28;20048;-81
2021/11/27 04:07:25;;;;;;;22.47;15.27;;;5.20;73.30;;;;;;5069758;28;20037;-82
2021/11/27 04:09:51;;;;;;;21.23;14.97;;;5.20;73.30;;;;;;5073024;28;20114;-82
2021/11/27 04:12:16;;;;;;;23.40;15.30;;;5.20;73.20;;;;;;5060306;28;20077;-81
2021/11/27 04:14:42;;;;;;;19.57;13.90;;;5.20;73.40;;;;;;5067241;28;20423;-81
2021/11/27 04:17:08;;;;;;;19.80;14.47;;;5.20;73.30;;;;;;5049495;28;20032;-82
2021/11/27 04:19:33;;;;;;;24.43;16.13;;;5.20;73.30;;;;;;5053256;28;20032;-81
2021/11/27 04:21:59;;;;;;;21.67;14.83;;;5.20;73.20;;;;;;5052890;28;20392;-81
2021/11/27 04:24:25;;;;;;;22.37;15.07;;;5.20;73.00;;;;;;5067811;28;20033;-82
2021/11/27 04:26:51;;;;;;;25.20;16.97;;;5.20;73.10;;;;;;5058684;28;20246;-81
2021/11/27 04:29:17;;;;;;;25.60;15.60;;;5.30;73.10;;;;;;5087710;28;20119;-82
2021/11/27 04:31:43;;;;;;;23.40;16.40;;;5.20;73.10;;;;;;5066946;28;20036;-82
2021/11/27 04:34:08;;;;;;;22.43;15.03;;;5.30;73.20;;;;;;5051656;28;20024;-82
2021/11/27 04:36:34;;;;;;;20.87;14.17;;;5.20;73.00;;;;;;5071492;28;20029;-79
2021/11/27 04:39:00;;;;;;;23.10;15.20;;;5.20;73.10;;;;;;5040732;28;20498;-79
2021/11/27 04:41:26;;;;;;;20.53;14.00;;;5.20;73.20;;;;;;5068358;28;20028;-82
2021/11/27 04:43:52;;;;;;;20.10;13.77;;;5.20;73.00;;;;;;5071126;28;21657;-79
2021/11/27 04:46:17;;;;;;;20.13;13.23;;;5.30;73.20;;;;;;5069127;28;20032;-81
2021/11/27 04:48:43;;;;;;;20.83;14.63;;;5.20;73.00;;;;;;5046151;28;20454;-81
2021/11/27 04:51:09;;;;;;;21.27;13.90;;;5.20;73.00;;;;;;5069904;28;20036;-81
2021/11/27 04:53:35;;;;;;;23.60;15.27;;;5.20;73.00;;;;;;5070355;28;20087;-81
2021/11/27 04:56:01;;;;;;;22.77;15.50;;;5.20;73.10;;;;;;5071888;28;20028;-81
2021/11/27 04:58:28;;;;;;;25.93;15.67;;;5.20;73.10;;;;;;5076533;28;20035;-81
2021/11/27 05:00:54;;;;;;;22.13;14.63;;;5.20;73.10;;;;;;5078054;28;20059;-81
2021/11/27 05:03:20;;;;;;;24.97;16.47;;;5.20;73.20;;;;;;5071214;28;20036;-81
2021/11/27 05:05:46;;;;;;;25.77;16.57;;;5.20;73.20;;;;;;5068061;28;20052;-82
2021/11/27 05:08:12;;;;;;;24.03;16.80;;;5.20;73.20;;;;;;5050236;28;20064;-82
2021/11/27 05:10:38;;;;;;;26.73;17.30;;;5.20;73.20;;;;;;5057606;28;20058;-82
2021/11/27 05:13:04;;;;;;;23.57;16.20;;;5.20;73.30;;;;;;5055087;28;20025;-81
2021/11/27 05:15:30;;;;;;;21.33;15.07;;;5.20;73.20;;;;;;5056784;28;20028;-81
2021/11/27 05:17:56;;;;;;;22.83;16.03;;;5.20;73.20;;;;;;5056577;28;20364;-81
2021/11/27 05:20:22;;;;;;;24.50;16.33;;;5.20;73.20;;;;;;5056809;28;20446;-81
2021/11/27 05:22:47;;;;;;;20.50;14.63;;;5.20;73.20;;;;;;5057488;28;20029;-81
2021/11/27 05:25:14;;;;;;;23.70;15.80;;;5.20;73.40;;;;;;5057232;28;20033;-81
2021/11/27 05:27:40;;;;;;;67.67;34.80;;;5.20;73.30;;;;;;5060823;28;20387;-81
2021/11/27 05:30:09;;;;;;;47.20;24.87;;;5.30;73.20;;;;;;5080047;28;20239;-81
2021/11/27 05:35:01;;;;;;;45.50;23.30;;;5.20;73.20;;;;;;5055427;28;20025;-81
2021/11/27 05:37:29;;;;;;;38.27;22.90;;;5.20;73.20;;;;;;5057165;28;20116;-81
2021/11/27 05:39:55;;;;;;;33.13;20.00;;;5.20;73.30;;;;;;5053329;28;20048;-81
2021/11/27 05:42:22;;;;;;;33.43;18.27;;;5.20;73.40;;;;;;5050342;28;20449;-81
2021/11/27 05:44:50;;;;;;;28.43;18.50;;;5.20;73.50;;;;;;5057694;28;20032;-81
2021/11/27 05:47:17;;;;;;;29.43;17.50;;;5.20;73.60;;;;;;5053610;28;20455;-81
2021/11/27 05:49:43;;;;;;;29.13;17.63;;;5.20;73.50;;;;;;5056137;28;20124;-81
2021/11/27 05:52:09;;;;;;;24.93;16.53;;;5.10;73.50;;;;;;5074693;28;20036;-81
2021/11/27 05:54:35;;;;;;;27.37;17.40;;;5.10;73.60;;;;;;5062075;28;20419;-81
2021/11/27 05:57:07;;;;;;;25.50;18.30;;;5.10;73.70;;;;;;5052306;28;20151;-81
2021/11/27 05:59:33;;;;;;;27.48;16.60;;;5.20;73.60;;;;;;5054658;28;20032;-81
2021/11/27 06:01:58;;;;;;;25.50;17.03;;;5.10;73.40;;;;;;5075674;28;20036;-81
2021/11/27 06:04:24;;;;;;;29.27;18.63;;;5.10;73.50;;;;;;5068430;28;20562;-81
2021/11/27 06:06:50;;;;;;;29.60;19.27;;;5.10;73.50;;;;;;5068288;28;20411;-81
2021/11/27 06:09:16;;;;;;;32.00;20.77;;;5.10;73.60;;;;;;5072208;28;20078;-81
2021/11/27 06:11:42;;;;;;;30.93;20.90;;;5.10;73.60;;;;;;5057480;28;20028;-81
2021/11/27 06:14:08;;;;;;;201.93;121.53;;;5.10;73.60;;;;;;5055281;28;20112;-81
2021/11/27 06:16:36;;;;;;;244.63;157.20;;;5.10;73.60;;;;;;5055748;28;20111;-81
2021/11/27 06:19:02;;;;;;;329.90;227.43;;;5.10;73.60;;;;;;5056598;28;20071;-81
2021/11/27 06:21:28;;;;;;;157.83;100.70;;;5.10;73.60;;;;;;5069808;28;20017;-81
2021/11/27 06:23:56;;;;;;;88.43;60.17;;;5.10;73.70;;;;;;5055217;28;20493;-81
2021/11/27 06:26:23;;;;;;;63.90;45.33;;;5.10;73.70;;;;;;5056482;28;20591;-81
2021/11/27 06:28:49;;;;;;;47.17;35.07;;;5.10;73.60;;;;;;5073942;28;20107;-81
2021/11/27 06:31:15;;;;;;;46.73;33.20;;;5.10;73.60;;;;;;5054786;28;20128;-81
2021/11/27 06:33:41;;;;;;;46.23;31.53;;;5.10;73.60;;;;;;5055632;28;20023;-81
2021/11/27 06:36:08;;;;;;;35.13;25.00;;;5.10;73.60;;;;;;5075015;28;20101;-81
2021/11/27 06:38:34;;;;;;;36.73;23.80;;;5.10;73.70;;;;;;5054414;28;20017;-81
2021/11/27 06:41:01;;;;;;;31.13;22.10;;;5.10;73.80;;;;;;5045778;28;20395;-81
2021/11/27 06:43:36;;;;;;;33.13;22.73;;;5.20;73.70;;;;;;5073602;28;20024;-82
2021/11/27 06:46:02;;;;;;;32.67;22.20;;;5.10;73.70;;;;;;5063222;28;20025;-82
2021/11/27 06:48:28;;;;;;;33.33;23.73;;;5.10;73.70;;;;;;5070447;28;20399;-81
2021/11/27 06:50:54;;;;;;;31.80;21.43;;;5.10;73.70;;;;;;5054766;28;20028;-81
2021/11/27 06:53:20;;;;;;;30.80;22.23;;;5.10;73.60;;;;;;5044590;28;20037;-81
2021/11/27 06:55:46;;;;;;;28.27;20.70;;;5.10;74.00;;;;;;5049263;28;20063;-81
2021/11/27 06:58:11;;;;;;;33.33;23.63;;;5.10;73.90;;;;;;5035262;28;20483;-81
2021/11/27 07:00:37;;;;;;;33.57;23.30;;;5.10;73.80;;;;;;5041682;28;20025;-81
2021/11/27 07:03:03;;;;;;;29.10;20.50;;;5.20;73.90;;;;;;5038022;28;20123;-81
2021/11/27 07:05:29;;;;;;;29.07;19.87;;;5.10;73.70;;;;;;5040479;28;20025;-81
2021/11/27 07:07:54;;;;;;;27.93;19.27;;;5.20;73.80;;;;;;5030726;28;20543;-81
2021/11/27 07:10:20;;;;;;;27.90;19.13;;;5.20;73.80;;;;;;5035452;28;20341;-82
2021/11/27 07:12:46;;;;;;;29.30;20.97;;;5.20;73.80;;;;;;5048859;28;20779;-81
2021/11/27 07:15:13;;;;;;;33.97;23.00;;;5.20;73.80;;;;;;5054377;28;20171;-82
2021/11/27 07:17:40;;;;;;;30.83;21.83;;;5.20;73.70;;;;;;5047019;28;20017;-81
2021/11/27 07:20:07;;;;;;;31.87;23.23;;;5.20;73.70;;;;;;5034680;28;20083;-81
2021/11/27 07:22:33;;;;;;;31.13;23.37;;;5.20;73.70;;;;;;5050970;28;20033;-81
2021/11/27 07:24:59;;;;;;;36.50;26.17;;;5.20;73.60;;;;;;5031888;28;20029;-81
2021/11/27 07:27:25;;;;;;;44.03;33.77;;;5.20;73.70;;;;;;5035268;28;20103;-82
2021/11/27 07:29:50;;;;;;;34.20;26.17;;;5.20;73.80;;;;;;5038261;28;20053;-82
2021/11/27 07:32:16;;;;;;;45.10;31.93;;;5.30;73.70;;;;;;5038189;28;20029;-81
2021/11/27 07:34:42;;;;;;;44.70;31.37;;;5.30;73.60;;;;;;5035724;28;20108;-82
2021/11/27 07:37:08;;;;;;;41.70;28.83;;;5.30;73.60;;;;;;5047631;28;20415;-81
2021/11/27 07:39:35;;;;;;;32.13;22.50;;;5.30;73.70;;;;;;5054833;28;20040;-81
2021/11/27 07:42:01;;;;;;;30.53;21.50;;;5.30;73.70;;;;;;5056364;28;20025;-81
2021/11/27 07:44:27;;;;;;;33.37;23.20;;;5.30;73.70;;;;;;5021713;28;20395;-81
2021/11/27 07:46:56;;;;;;;33.70;23.10;;;5.30;73.70;;;;;;5033086;28;20101;-81
2021/11/27 07:49:23;;;;;;;38.13;23.97;;;5.30;73.60;;;;;;5035661;28;20115;-81
2021/11/27 07:51:49;;;;;;;40.70;28.90;;;5.30;73.70;;;;;;5051245;28;20021;-81
2021/11/27 07:54:15;;;;;;;35.23;23.63;;;5.30;73.80;;;;;;5074322;28;20048;-81
2021/11/27 07:56:41;;;;;;;44.43;30.97;;;5.30;73.80;;;;;;5054593;28;20434;-81
2021/11/27 07:59:07;;;;;;;39.20;28.07;;;5.30;73.80;;;;;;5053521;28;20063;-81
2021/11/27 08:01:33;;;;;;;35.87;24.83;;;5.40;73.80;;;;;;5053068;28;20029;-82
2021/11/27 08:03:59;;;;;;;35.03;24.93;;;5.40;73.70;;;;;;5051608;28;20034;-81
2021/11/27 08:06:26;;;;;;;39.27;27.73;;;5.50;73.60;;;;;;5051390;28;20033;-81
2021/11/27 08:08:51;;;;;;;40.57;25.97;;;5.50;73.50;;;;;;5074155;28;20032;-81
2021/11/27 08:11:24;;;;;;;36.17;25.73;;;5.50;73.50;;;;;;5048969;28;20041;-81
2021/11/27 08:13:49;;;;;;;39.88;26.65;;;5.60;73.40;;;;;;5054699;28;20028;-81
2021/11/27 08:16:15;;;;;;;34.53;23.43;;;5.60;73.20;;;;;;5052200;28;20118;-81
2021/11/27 08:18:41;;;;;;;32.67;22.57;;;5.60;73.10;;;;;;5068231;28;20024;-82
2021/11/27 08:21:07;;;;;;;34.93;22.77;;;5.60;73.10;;;;;;5069313;28;20028;-81
2021/11/27 08:23:33;;;;;;;32.53;21.27;;;5.60;73.30;;;;;;5069281;28;20964;-82
2021/11/27 08:25:59;;;;;;;35.13;21.57;;;5.60;73.30;;;;;;5074563;28;20056;-81
2021/11/27 08:28:25;;;;;;;34.80;22.23;;;5.60;73.30;;;;;;5051177;28;20052;-82
2021/11/27 08:30:51;;;;;;;33.63;22.77;;;5.60;73.30;;;;;;5073585;28;20514;-82
2021/11/27 08:33:17;;;;;;;36.80;22.27;;;5.60;73.20;;;;;;5037688;28;20522;-81
2021/11/27 08:35:42;;;;;;;33.20;23.17;;;5.60;73.70;;;;;;5052642;28;20454;-81
2021/11/27 08:38:08;;;;;;;30.07;21.23;;;5.60;73.70;;;;;;5086564;28;20020;-81
2021/11/27 08:40:34;;;;;;;30.67;21.37;;;5.70;73.20;;;;;;5052613;28;20021;-82
2021/11/27 08:43:01;;;;;;;35.73;23.83;;;5.70;73.20;;;;;;5053169;28;20392;-81
2021/11/27 08:45:27;;;;;;;32.47;22.53;;;5.70;73.20;;;;;;5067478;28;20032;-81
2021/11/27 08:47:53;;;;;;;37.50;26.07;;;5.70;73.20;;;;;;5052450;28;20047;-81
2021/11/27 08:50:19;;;;;;;38.73;25.90;;;5.60;73.00;;;;;;5040329;28;20615;-81
2021/11/27 08:52:46;;;;;;;27.23;19.97;;;5.70;73.20;;;;;;5059580;28;20051;-81
2021/11/27 08:55:12;;;;;;;27.47;18.77;;;5.70;73.80;;;;;;5057045;28;20056;-81
2021/11/27 08:57:38;;;;;;;28.13;19.53;;;5.70;73.20;;;;;;5056214;28;20441;-81
2021/11/27 09:00:07;;;;;;;28.20;18.80;;;5.70;73.20;;;;;;5053535;28;20523;-81
2021/11/27 09:02:33;;;;;;;30.27;19.83;;;5.80;73.10;;;;;;5055852;28;20058;-81
2021/11/27 09:04:59;;;;;;;27.43;19.27;;;5.80;73.00;;;;;;5044828;28;20036;-81
2021/11/27 09:07:25;;;;;;;29.97;19.07;;;5.80;72.90;;;;;;5058135;28;20480;-81
2021/11/27 09:09:51;;;;;;;27.87;19.27;;;5.80;72.90;;;;;;5064119;28;20029;-81
2021/11/27 09:12:20;;;;;;;32.70;21.63;;;5.80;72.80;;;;;;5053959;28;20029;-81
2021/11/27 09:14:47;;;;;;;30.77;20.23;;;5.80;72.90;;;;;;5054550;28;20032;-81
2021/11/27 09:17:13;;;;;;;28.40;20.07;;;5.90;73.00;;;;;;5052585;28;20024;-82
2021/11/27 09:19:38;;;;;;;23.87;17.50;;;5.90;72.90;;;;;;5064957;28;20782;-81
2021/11/27 09:22:04;;;;;;;25.07;17.00;;;5.90;72.80;;;;;;5073274;28;20021;-81
2021/11/27 09:24:30;;;;;;;23.90;18.23;;;5.90;72.90;;;;;;5079695;28;20081;-81
2021/11/27 09:26:56;;;;;;;25.50;17.00;;;5.90;73.00;;;;;;5046633;28;20476;-82
2021/11/27 09:29:23;;;;;;;28.97;19.93;;;5.90;72.90;;;;;;5068740;28;20078;-82
2021/11/27 09:31:49;;;;;;;32.10;21.00;;;5.90;72.90;;;;;;5043887;28;20032;-82
2021/11/27 09:34:15;;;;;;;29.63;19.77;;;5.90;72.80;;;;;;5068393;28;20460;-82
2021/11/27 09:36:43;;;;;;;29.33;20.17;;;6.00;72.80;;;;;;5055863;28;20062;-81
2021/11/27 09:39:10;;;;;;;31.50;22.50;;;6.10;72.80;;;;;;5057099;28;20029;-82
2021/11/27 09:41:39;;;;;;;32.93;22.20;;;6.10;72.60;;;;;;5049611;28;20025;-82
2021/11/27 09:44:06;;;;;;;35.87;23.13;;;6.10;72.70;;;;;;5059066;28;20029;-81
2021/11/27 09:46:35;;;;;;;40.07;25.43;;;6.20;72.50;;;;;;5064098;28;20061;-81
2021/11/27 09:49:04;;;;;;;33.93;22.83;;;6.20;72.50;;;;;;5068635;28;20028;-82
2021/11/27 09:51:31;;;;;;;28.97;20.03;;;6.20;72.50;;;;;;5081522;28;20795;-81
2021/11/27 09:53:59;;;;;;;28.30;19.87;;;6.30;72.80;;;;;;5052709;28;20045;-81
2021/11/27 09:56:26;;;;;;;38.23;23.40;;;6.30;72.50;;;;;;5067494;28;20106;-81
2021/11/27 09:58:53;;;;;;;48.97;30.60;;;6.30;72.30;;;;;;5053416;28;20512;-81
2021/11/27 10:01:23;;;;;;;44.53;29.27;;;6.30;72.40;;;;;;5076266;28;20088;-81
2021/11/27 10:04:00;;;;;;;35.13;23.50;;;6.30;72.50;;;;;;5072707;28;20046;-81
2021/11/27 10:06:28;;;;;;;26.80;19.00;;;6.20;72.40;;;;;;5077160;28;20117;-81
2021/11/27 10:08:54;;;;;;;25.97;17.10;;;6.20;72.50;;;;;;5082435;28;20106;-81
2021/11/27 10:11:20;;;;;;;24.00;18.00;;;6.20;72.50;;;;;;5048418;28;20111;-81
2021/11/27 10:13:46;;;;;;;25.50;17.57;;;6.20;72.50;;;;;;5057490;28;20119;-81
2021/11/27 10:16:12;;;;;;;23.87;17.70;;;6.20;72.50;;;;;;5054397;28;20032;-81
2021/11/27 10:18:37;;;;;;;27.23;19.23;;;6.20;72.50;;;;;;5076442;28;20033;-81
2021/11/27 10:21:23;;;;;;;29.10;19.33;;;6.20;72.50;;;;;;5076651;28;20520;-81
2021/11/27 10:23:50;;;;;;;26.13;19.80;;;6.30;72.50;;;;;;5065162;28;20036;-81
2021/11/27 10:26:31;;;;;;;29.90;20.43;;;6.30;72.40;;;;;;5054511;28;20040;-81
2021/11/27 10:29:23;;;;;;;30.43;20.67;;;6.20;72.20;;;;;;5046798;28;20032;-81
2021/11/27 10:32:04;;;;;;;29.43;20.30;;;6.20;72.50;;;;;;5055261;28;20047;-81
2021/11/27 10:34:30;;;;;;;28.97;20.47;;;6.20;72.40;;;;;;5069365;28;20021;-81
2021/11/27 10:36:56;;;;;;;26.67;19.30;;;6.20;72.40;;;;;;5061201;28;20051;-81
2021/11/27 10:39:21;;;;;;;25.23;18.47;;;6.20;72.50;;;;;;5053933;28;20114;-81
2021/11/27 10:42:02;;;;;;;22.70;15.40;;;6.10;72.50;;;;;;5069620;28;20024;-81
2021/11/27 10:44:35;;;;;;;22.17;15.10;;;6.10;72.50;;;;;;5052506;28;20028;-81
2021/11/27 10:47:15;;;;;;;25.23;16.00;;;6.20;72.60;;;;;;5077568;28;20487;-80
2021/11/27 10:49:45;;;;;;;26.43;16.57;;;6.20;72.40;;;;;;5077731;28;20020;-81
2021/11/27 10:52:17;;;;;;;23.33;15.73;;;6.20;72.20;;;;;;5066342;28;20024;-81
2021/11/27 10:54:46;;;;;;;23.33;17.07;;;6.20;72.10;;;;;;5066148;28;20048;-81
2021/11/27 10:57:31;;;;;;;20.20;14.20;;;6.20;72.20;;;;;;5065933;28;20227;-81
2021/11/27 10:59:59;;;;;;;24.10;16.00;;;6.30;72.40;;;;;;5054599;28;20032;-81
2021/11/27 11:02:28;;;;;;;26.17;15.97;;;6.30;72.10;;;;;;5051556;28;20480;-81
2021/11/27 11:05:12;;;;;;;26.90;16.17;;;6.30;72.30;;;;;;5049486;28;20032;-81
2021/11/27 11:07:39;;;;;;;23.67;15.00;;;6.40;72.40;;;;;;5049976;28;20063;-81
2021/11/27 11:10:07;;;;;;;23.40;14.60;;;6.40;72.40;;;;;;5066364;28;20024;-81
2021/11/27 11:12:37;;;;;;;29.87;17.57;;;6.50;72.20;;;;;;5050713;28;20422;-81
2021/11/27 11:15:20;;;;;;;32.17;16.70;;;6.50;72.30;;;;;;5064162;28;20028;-81
2021/11/27 11:17:47;;;;;;;28.40;18.52;;;6.60;72.20;;;;;;5072854;28;20032;-81
2021/11/27 11:20:27;;;;;;;27.77;18.57;;;6.60;72.10;;;;;;5074559;28;20060;-81
2021/11/27 11:22:58;;;;;;;27.43;19.10;;;6.60;72.20;;;;;;5066638;28;20050;-81
2021/11/27 11:25:25;;;;;;;34.07;19.40;;;6.60;72.30;;;;;;5072252;28;20024;-81
2021/11/27 11:27:50;;;;;;;23.20;16.73;;;6.70;72.40;;;;;;5046934;28;20089;-81
2021/11/27 11:30:21;;;;;;;20.87;14.70;;;6.70;72.20;;;;;;5081964;28;20031;-81
2021/11/27 11:32:48;;;;;;;21.77;14.97;;;6.80;72.00;;;;;;5074405;28;20088;-81
2021/11/27 11:35:15;;;;;;;19.57;13.17;;;6.80;72.00;;;;;;5058711;28;20032;-81
2021/11/27 11:37:41;;;;;;;20.70;13.57;;;6.80;71.80;;;;;;5068325;28;20028;-81
2021/11/27 11:40:07;;;;;;;17.87;12.03;;;6.90;71.70;;;;;;5061003;28;20031;-81
2021/11/27 11:42:33;;;;;;;16.70;12.10;;;6.90;71.70;;;;;;5067809;28;20028;-81
2021/11/27 11:44:59;;;;;;;17.13;12.80;;;7.00;71.60;;;;;;5068820;28;20553;-81
2021/11/27 11:47:25;;;;;;;19.27;11.67;;;7.10;71.50;;;;;;5058522;28;20032;-82
2021/11/27 11:49:59;;;;;;;16.23;12.07;;;7.10;71.40;;;;;;5064650;28;20060;-81
2021/11/27 11:52:27;;;;;;;14.80;11.10;;;7.20;71.30;;;;;;5068007;28;20032;-81
2021/11/27 11:55:01;;;;;;;18.20;11.63;;;7.20;71.10;;;;;;5052264;28;20020;-81
2021/11/27 11:57:44;;;;;;;16.47;11.73;;;7.10;71.20;;;;;;5072684;28;20107;-81
2021/11/27 12:00:21;;;;;;;19.55;13.38;;;7.10;71.10;;;;;;5061402;28;21923;-82
2021/11/27 12:02:47;;;;;;;16.40;11.73;;;7.10;71.20;;;;;;5048527;28;20488;-81
2021/11/27 12:05:15;;;;;;;16.53;11.80;;;7.10;71.40;;;;;;5063122;28;20032;-82
2021/11/27 12:07:44;;;;;;;15.13;11.57;;;7.20;71.10;;;;;;5049865;28;20025;-81
2021/11/27 12:10:13;;;;;;;20.10;11.23;;;7.20;70.90;;;;;;5053075;28;20546;-81
2021/11/27 12:12:39;;;;;;;15.50;11.27;;;7.10;70.70;;;;;;5068753;28;20028;-82
2021/11/27 12:15:05;;;;;;;18.17;11.00;;;7.00;70.90;;;;;;5054885;28;20028;-81
2021/11/27 12:17:32;;;;;;;18.40;10.20;;;7.00;71.40;;;;;;5044932;28;20024;-80
2021/11/27 12:20:04;;;;;;;14.43;9.80;;;7.00;71.30;;;;;;5055156;28;20055;-81
2021/11/27 12:22:37;;;;;;;16.87;10.30;;;7.00;71.20;;;;;;5068537;28;20033;-82
2021/11/27 12:25:10;;;;;;;13.43;9.70;;;7.10;71.20;;;;;;5053397;28;20027;-82
2021/11/27 12:28:08;;;;;;;16.70;10.97;;;7.10;71.10;;;;;;5065236;28;20857;-81
2021/11/27 12:30:41;;;;;;;14.30;10.53;;;7.10;71.10;;;;;;5058099;28;20019;-81
2021/11/27 12:33:06;;;;;;;15.98;10.90;;;7.10;70.90;;;;;;5050463;28;20028;-81
2021/11/27 12:35:32;;;;;;;16.47;11.63;;;7.10;71.00;;;;;;5056047;28;20027;-81
2021/11/27 12:38:07;;;;;;;19.70;12.23;;;7.10;71.00;;;;;;5076204;28;20020;-81
2021/11/27 12:40:45;;;;;;;21.83;14.40;;;7.10;70.90;;;;;;5072603;28;20047;-81